• Join FlightAware (Why Join?)
  • Login
  • US Flag 
10:56PM EDT


 

Airport Tracker/Info


-or-


 

Live Flight TrackerFlight Track Log ✈ DAL3860 ✈ 21-Mar-2014 ✈ KCVG - KDTW

Flight Track Log - Related Links

Times and Time Zones

All times are in EDT time to prevent confusion due to time zone crossing. See the DAL3860 flight status page for this flight to view local times or setup timezone preferences in your user account.

Time Position Orientation Groundspeed Altitude Reporting Facility
EDT Latitude Longitude Course Direction KTS MPH feet Rate Location/Type
06:44AM 39.0500 -84.6833 270° West 160 184 1,300  Level Cincinnati TRACON
06:44AM 39.0500 -84.7000 270° West 152 175 2,800 1,920 Climbing Cincinnati TRACON
06:45AM 39.0667 -84.7667 288° West 238 274 4,000 2,220 Climbing Cincinnati TRACON
06:46AM 39.1500 -84.7500 North 300 345 7,300 3,300 Climbing Cincinnati TRACON
06:47AM 39.2167 -84.7167 21° North 294 338 10,600 2,520 Climbing Cincinnati TRACON
06:49AM 39.3042 -84.6947 11° North 300 345 12,700 1,920 Climbing Indianapolis Center
06:50AM 39.3953 -84.6594 17° North 328 377 14,700 1,980 Climbing Indianapolis Center
06:51AM 39.4906 -84.6233 16° North 348 400 16,800 1,980 Climbing Indianapolis Center
06:52AM 39.5864 -84.5853 17° North 354 407 18,700 1,800 Climbing Indianapolis Center
06:53AM 39.6831 -84.5436 18° North 360 414 20,500 1,080 Climbing Indianapolis Center
06:54AM 39.7831 -84.4992 19° North 370 426 21,000 240 Climbing Indianapolis Center
06:55AM 39.8839 -84.4558 18° North 375 432 21,000  Level Indianapolis Center
06:56AM 39.9847 -84.4100 19° North 377 434 21,000  Level Indianapolis Center
06:57AM 40.0842 -84.4000 North 365 420 21,000  Level Indianapolis Center
06:58AM 40.1828 -84.4011 360° North 355 409 21,000  Level Indianapolis Center
06:59AM 40.2806 -84.4036 359° North 353 406 21,000  Level Indianapolis Center
07:00AM 40.3792 -84.4061 359° North 353 406 21,000  Level Indianapolis Center
07:01AM 40.4767 -84.4092 359° North 353 406 21,000  Level Indianapolis Center
07:02AM 40.5767 -84.4119 359° North 353 406 21,000  Level Indianapolis Center
07:03AM 40.6753 -84.4147 359° North 355 409 21,000  Level Indianapolis Center
07:04AM 40.7939 -84.4172 359° North 355 409 21,000  Level Indianapolis Center
07:05AM 40.8928 -84.4203 359° North 355 409 21,000  Level Indianapolis Center
07:06AM 40.9914 -84.4225 359° North 355 409 21,000 -120 Level Indianapolis Center
07:07AM 41.0903 -84.4267 358° North 355 409 20,800 -660 Descending Indianapolis Center
07:08AM 41.1889 -84.4281 359° North 356 410 19,700 -1,020 Descending Indianapolis Center
07:09AM 41.3094 -84.4317 359° North 343 395 18,500 -1,020 Descending Cleveland Center
07:10AM 41.4042 -84.3731 25° Northeast 386 444 17,500 -1,080 Descending Cleveland Center
07:11AM 41.4928 -84.3053 30° Northeast 372 428 16,300 -1,260 Descending Cleveland Center
07:12AM 41.5494 -84.2608 30° Northeast 359 413 15,500 -1,320 Descending Cleveland Center
07:12AM 41.5853 -84.2317 31° Northeast 354 407 15,000 -1,260 Descending Cleveland Center
07:13AM 41.6533 -84.1761 31° Northeast 359 413 14,000 -1,200 Descending Cleveland Center
07:13AM 41.6711 -84.1619 31° Northeast 355 409 13,800 -1,080 Descending Cleveland Center
07:14AM 41.7572 -84.0944 30° Northeast 357 411 12,700 -1,140 Descending Cleveland Center
07:14AM 41.7658 -84.0867 34° Northeast 360 414 12,600 -720 Descending Cleveland Center
07:15AM 41.8389 -84.0164 36° Northeast 361 415 12,000 -660 Descending Cleveland Center
07:15AM 41.8378 -84.0194 244° Southwest 356 410 12,000  Level Cleveland Center
07:16AM 41.9064 -83.9114 50° Northeast 366 421 12,000  Level Cleveland Center
07:16AM 41.9028 -83.9136 205° Southwest 366 421 12,000  Level Cleveland Center
07:17AM 41.9706 -83.8200 46° Northeast 318 366 12,000  Level Cleveland Center
07:17AM 41.9656 -83.8258 221° Southwest 332 382 12,000 -780 Level Cleveland Center
07:18AM 42.0206 -83.7486 46° Northeast 303 349 11,300 -720 Descending Cleveland Center
07:18AM 42.0247 -83.7431 45° Northeast 311 358 11,300 -300 Level Cleveland Center
07:19AM 42.0842 -83.6622 45° Northeast 297 342 11,000 -300 Descending Cleveland Center
07:19AM 42.0936 -83.6475 49° Northeast 302 348 11,000  Level Cleveland Center
07:20AM 42.1386 -83.5828 47° Northeast 256 295 11,000  Level Cleveland Center
07:20AM 42.1444 -83.5767 38° Northeast 268 308 11,000  Level Cleveland Center
07:21AM 42.1889 -83.5308 37° Northeast 236 272 11,000  Level Cleveland Center
07:21AM 42.1944 -83.5261 32° Northeast 249 287 11,000 -120 Level Cleveland Center
07:22AM 42.2489 -83.4889 27° Northeast 238 274 10,900 -300 Descending Cleveland Center
07:22AM 42.2550 -83.4858 20° North 241 277 10,700 -1,620 Descending Cleveland Center
07:23AM 42.3128 -83.4500 25° Northeast 246 283 9,300 -1,560 Descending Cleveland Center
07:23AM 42.3164 -83.4478 24° Northeast 240 276 9,100 -1,500 Descending Cleveland Center
07:24AM 42.3922 -83.4081 21° North 245 282 7,400 -1,680 Descending Cleveland Center
07:25AM 42.4375 -83.3828 22° Northeast 240 276 6,200 -1,500 Descending Cleveland Center
07:25AM 42.4469 -83.3672 51° Northeast 245 282 5,900 -1,500 Descending Cleveland Center
07:26AM 42.4247 -83.3047 116° Southeast 230 265 4,700 -1,500 Descending Cleveland Center
07:27AM 42.4167 -83.3006 159° South 232 267 4,400 -1,140 Descending Cleveland Center
07:27AM 42.3703 -83.3028 182° South 179 206 3,600 -1,020 Descending Cleveland Center
07:28AM 42.3631 -83.3017 174° South 198 228 3,400 -840 Descending Cleveland Center
07:28AM 42.3094 -83.3056 183° South 176 203 2,600 -780 Descending Cleveland Center
07:29AM 42.3128 -83.3061 353° North 181 208 2,600 -900 Level Cleveland Center
07:29AM 42.2672 -83.3361 206° Southwest 151 174 1,700 -900 Descending Cleveland Center
07:30AM 42.2703 -83.3339 28° Northeast 173 199 1,700 -840 Level Cleveland Center
07:30AM 42.2317 -83.3622 209° Southwest 145 167 900 -840 Descending Cleveland Center
07:31AM 42.2339 -83.3603 33° Northeast 157 181 900 -180 Level Cleveland Center
07:32AM 42.1989 -83.3864 209° Southwest 155 178 700 -240 Descending Cleveland Center